sensor_id;sensor_type;location;lat;lon;timestamp;P1;durP1;ratioP1;P2;durP2;ratioP2
39772;SDS011;25451;51.960;6.250;2022-12-04T00:01:12;42.63;;;14.30;;
39772;SDS011;25451;51.960;6.250;2022-12-04T00:03:39;46.75;;;15.23;;
39772;SDS011;25451;51.960;6.250;2022-12-04T00:06:05;39.92;;;14.70;;
39772;SDS011;25451;51.960;6.250;2022-12-04T00:08:35;46.35;;;15.35;;
39772;SDS011;25451;51.960;6.250;2022-12-04T00:11:02;42.17;;;13.93;;
39772;SDS011;25451;51.960;6.250;2022-12-04T00:13:29;45.83;;;13.77;;
39772;SDS011;25451;51.960;6.250;2022-12-04T00:15:54;35.43;;;12.23;;
39772;SDS011;25451;51.960;6.250;2022-12-04T00:18:20;35.20;;;12.73;;
39772;SDS011;25451;51.960;6.250;2022-12-04T00:20:45;39.67;;;13.82;;
39772;SDS011;25451;51.960;6.250;2022-12-04T00:23:10;44.40;;;14.70;;
39772;SDS011;25451;51.960;6.250;2022-12-04T00:25:35;42.83;;;13.07;;
39772;SDS011;25451;51.960;6.250;2022-12-04T00:28:01;42.90;;;14.70;;
39772;SDS011;25451;51.960;6.250;2022-12-04T00:30:26;42.47;;;14.30;;
39772;SDS011;25451;51.960;6.250;2022-12-04T00:32:51;43.47;;;14.13;;
39772;SDS011;25451;51.960;6.250;2022-12-04T00:35:16;34.70;;;12.77;;
39772;SDS011;25451;51.960;6.250;2022-12-04T00:37:42;41.83;;;13.20;;
39772;SDS011;25451;51.960;6.250;2022-12-04T00:40:07;38.40;;;12.77;;
39772;SDS011;25451;51.960;6.250;2022-12-04T00:42:33;43.30;;;13.45;;
39772;SDS011;25451;51.960;6.250;2022-12-04T00:44:59;42.57;;;13.27;;
39772;SDS011;25451;51.960;6.250;2022-12-04T00:47:24;36.10;;;13.10;;
39772;SDS011;25451;51.960;6.250;2022-12-04T00:49:49;36.70;;;13.60;;
39772;SDS011;25451;51.960;6.250;2022-12-04T00:52:15;40.67;;;13.53;;
39772;SDS011;25451;51.960;6.250;2022-12-04T00:54:40;41.70;;;14.23;;
39772;SDS011;25451;51.960;6.250;2022-12-04T00:57:05;43.47;;;13.93;;
39772;SDS011;25451;51.960;6.250;2022-12-04T00:59:30;40.53;;;14.13;;
39772;SDS011;25451;51.960;6.250;2022-12-04T01:01:56;42.00;;;13.63;;
39772;SDS011;25451;51.960;6.250;2022-12-04T01:04:21;34.83;;;12.45;;
39772;SDS011;25451;51.960;6.250;2022-12-04T01:06:46;41.53;;;13.70;;
39772;SDS011;25451;51.960;6.250;2022-12-04T01:09:12;40.43;;;14.03;;
39772;SDS011;25451;51.960;6.250;2022-12-04T01:11:37;42.70;;;14.60;;
39772;SDS011;25451;51.960;6.250;2022-12-04T01:14:02;47.90;;;14.33;;
39772;SDS011;25451;51.960;6.250;2022-12-04T01:16:30;40.58;;;13.40;;
39772;SDS011;25451;51.960;6.250;2022-12-04T01:18:58;41.67;;;12.98;;
39772;SDS011;25451;51.960;6.250;2022-12-04T01:21:24;45.13;;;14.98;;
39772;SDS011;25451;51.960;6.250;2022-12-04T01:23:49;41.73;;;14.03;;
39772;SDS011;25451;51.960;6.250;2022-12-04T01:26:14;43.03;;;14.83;;
39772;SDS011;25451;51.960;6.250;2022-12-04T01:28:40;48.17;;;15.47;;
39772;SDS011;25451;51.960;6.250;2022-12-04T01:31:07;43.10;;;14.13;;
39772;SDS011;25451;51.960;6.250;2022-12-04T01:33:35;47.00;;;14.50;;
39772;SDS011;25451;51.960;6.250;2022-12-04T01:36:02;40.17;;;12.50;;
39772;SDS011;25451;51.960;6.250;2022-12-04T01:38:32;40.30;;;13.35;;
39772;SDS011;25451;51.960;6.250;2022-12-04T01:40:59;40.40;;;13.15;;
39772;SDS011;25451;51.960;6.250;2022-12-04T01:43:25;41.30;;;14.00;;
39772;SDS011;25451;51.960;6.250;2022-12-04T01:45:54;43.25;;;14.35;;
39772;SDS011;25451;51.960;6.250;2022-12-04T01:51:32;42.85;;;13.30;;
39772;SDS011;25451;51.960;6.250;2022-12-04T01:53:53;41.50;;;13.90;;
39772;SDS011;25451;51.960;6.250;2022-12-04T01:56:23;39.13;;;13.33;;
39772;SDS011;25451;51.960;6.250;2022-12-04T01:58:53;38.47;;;15.27;;
39772;SDS011;25451;51.960;6.250;2022-12-04T02:01:22;47.25;;;14.57;;
39772;SDS011;25451;51.960;6.250;2022-12-04T02:03:51;47.13;;;15.18;;
39772;SDS011;25451;51.960;6.250;2022-12-04T02:06:18;40.83;;;13.65;;
39772;SDS011;25451;51.960;6.250;2022-12-04T02:08:43;39.43;;;13.83;;
39772;SDS011;25451;51.960;6.250;2022-12-04T02:11:14;40.37;;;13.90;;
39772;SDS011;25451;51.960;6.250;2022-12-04T02:22:16;44.03;;;13.80;;
39772;SDS011;25451;51.960;6.250;2022-12-04T02:31:01;38.77;;;13.67;;
39772;SDS011;25451;51.960;6.250;2022-12-04T02:33:35;41.75;;;14.02;;
39772;SDS011;25451;51.960;6.250;2022-12-04T02:36:07;40.88;;;14.38;;
39772;SDS011;25451;51.960;6.250;2022-12-04T02:38:37;41.92;;;13.60;;
39772;SDS011;25451;51.960;6.250;2022-12-04T02:41:18;41.65;;;13.60;;
39772;SDS011;25451;51.960;6.250;2022-12-04T02:43:50;38.90;;;13.30;;
39772;SDS011;25451;51.960;6.250;2022-12-04T02:48:57;39.70;;;13.75;;
39772;SDS011;25451;51.960;6.250;2022-12-04T02:51:26;37.72;;;13.07;;
39772;SDS011;25451;51.960;6.250;2022-12-04T02:53:57;42.85;;;13.07;;
39772;SDS011;25451;51.960;6.250;2022-12-04T02:56:29;38.67;;;13.10;;
39772;SDS011;25451;51.960;6.250;2022-12-04T02:58:59;42.38;;;14.13;;
39772;SDS011;25451;51.960;6.250;2022-12-04T03:01:32;40.95;;;14.77;;
39772;SDS011;25451;51.960;6.250;2022-12-04T03:04:03;41.33;;;12.73;;
39772;SDS011;25451;51.960;6.250;2022-12-04T03:06:35;36.63;;;12.77;;
39772;SDS011;25451;51.960;6.250;2022-12-04T03:09:08;39.33;;;13.17;;
39772;SDS011;25451;51.960;6.250;2022-12-04T03:11:48;41.72;;;14.45;;
39772;SDS011;25451;51.960;6.250;2022-12-04T03:14:18;40.22;;;13.35;;
39772;SDS011;25451;51.960;6.250;2022-12-04T03:16:47;46.80;;;14.48;;
39772;SDS011;25451;51.960;6.250;2022-12-04T03:21:55;41.10;;;12.90;;
39772;SDS011;25451;51.960;6.250;2022-12-04T03:27:00;35.30;;;12.82;;
39772;SDS011;25451;51.960;6.250;2022-12-04T03:29:41;43.33;;;14.50;;
39772;SDS011;25451;51.960;6.250;2022-12-04T03:32:27;36.95;;;12.50;;
39772;SDS011;25451;51.960;6.250;2022-12-04T03:40:37;39.42;;;13.75;;
39772;SDS011;25451;51.960;6.250;2022-12-04T03:43:12;38.47;;;13.25;;
39772;SDS011;25451;51.960;6.250;2022-12-04T03:45:45;40.53;;;13.20;;
39772;SDS011;25451;51.960;6.250;2022-12-04T03:48:25;37.47;;;12.50;;
39772;SDS011;25451;51.960;6.250;2022-12-04T03:51:11;39.10;;;12.98;;
39772;SDS011;25451;51.960;6.250;2022-12-04T03:53:47;38.20;;;13.75;;
39772;SDS011;25451;51.960;6.250;2022-12-04T03:56:21;41.50;;;13.73;;
39772;SDS011;25451;51.960;6.250;2022-12-04T03:58:54;36.88;;;11.45;;
39772;SDS011;25451;51.960;6.250;2022-12-04T04:01:28;34.23;;;12.53;;
39772;SDS011;25451;51.960;6.250;2022-12-04T04:03:58;40.95;;;13.43;;
39772;SDS011;25451;51.960;6.250;2022-12-04T04:06:29;39.25;;;13.85;;
39772;SDS011;25451;51.960;6.250;2022-12-04T04:08:59;33.63;;;13.18;;
39772;SDS011;25451;51.960;6.250;2022-12-04T04:11:53;35.28;;;13.05;;
39772;SDS011;25451;51.960;6.250;2022-12-04T04:17:29;35.03;;;13.30;;
39772;SDS011;25451;51.960;6.250;2022-12-04T04:20:18;38.08;;;13.02;;
39772;SDS011;25451;51.960;6.250;2022-12-04T04:23:05;40.20;;;13.05;;
39772;SDS011;25451;51.960;6.250;2022-12-04T04:25:53;33.80;;;12.93;;
39772;SDS011;25451;51.960;6.250;2022-12-04T04:28:28;35.00;;;12.33;;
39772;SDS011;25451;51.960;6.250;2022-12-04T04:31:06;40.05;;;13.80;;
39772;SDS011;25451;51.960;6.250;2022-12-04T04:33:48;36.35;;;12.95;;
39772;SDS011;25451;51.960;6.250;2022-12-04T04:36:33;33.90;;;12.40;;
39772;SDS011;25451;51.960;6.250;2022-12-04T04:39:23;38.38;;;13.00;;
39772;SDS011;25451;51.960;6.250;2022-12-04T04:41:56;33.33;;;12.07;;
39772;SDS011;25451;51.960;6.250;2022-12-04T04:46:59;37.83;;;13.57;;
39772;SDS011;25451;51.960;6.250;2022-12-04T04:49:27;37.95;;;13.10;;
39772;SDS011;25451;51.960;6.250;2022-12-04T04:51:56;42.15;;;14.05;;
39772;SDS011;25451;51.960;6.250;2022-12-04T04:54:22;44.33;;;13.43;;
39772;SDS011;25451;51.960;6.250;2022-12-04T04:56:48;38.83;;;13.07;;
39772;SDS011;25451;51.960;6.250;2022-12-04T04:59:14;36.97;;;13.83;;
39772;SDS011;25451;51.960;6.250;2022-12-04T05:01:40;41.78;;;13.48;;
39772;SDS011;25451;51.960;6.250;2022-12-04T05:04:09;35.47;;;13.27;;
39772;SDS011;25451;51.960;6.250;2022-12-04T05:06:34;37.20;;;11.93;;
39772;SDS011;25451;51.960;6.250;2022-12-04T05:08:59;40.20;;;13.70;;
39772;SDS011;25451;51.960;6.250;2022-12-04T05:11:25;40.10;;;13.17;;
39772;SDS011;25451;51.960;6.250;2022-12-04T05:13:50;36.67;;;13.13;;
39772;SDS011;25451;51.960;6.250;2022-12-04T05:16:16;39.78;;;13.00;;
39772;SDS011;25451;51.960;6.250;2022-12-04T05:18:42;41.47;;;13.60;;
39772;SDS011;25451;51.960;6.250;2022-12-04T05:21:27;32.45;;;12.45;;
39772;SDS011;25451;51.960;6.250;2022-12-04T05:23:53;37.93;;;12.57;;
39772;SDS011;25451;51.960;6.250;2022-12-04T05:26:18;38.60;;;13.15;;
39772;SDS011;25451;51.960;6.250;2022-12-04T05:28:43;31.92;;;12.50;;
39772;SDS011;25451;51.960;6.250;2022-12-04T05:31:08;38.35;;;12.40;;
39772;SDS011;25451;51.960;6.250;2022-12-04T05:33:34;34.20;;;12.40;;
39772;SDS011;25451;51.960;6.250;2022-12-04T05:36:00;35.67;;;12.57;;
39772;SDS011;25451;51.960;6.250;2022-12-04T05:38:27;37.33;;;13.83;;
39772;SDS011;25451;51.960;6.250;2022-12-04T05:40:52;34.00;;;12.07;;
39772;SDS011;25451;51.960;6.250;2022-12-04T05:43:18;37.83;;;12.67;;
39772;SDS011;25451;51.960;6.250;2022-12-04T05:45:43;35.13;;;12.33;;
39772;SDS011;25451;51.960;6.250;2022-12-04T05:48:09;37.90;;;12.17;;
39772;SDS011;25451;51.960;6.250;2022-12-04T05:50:34;36.35;;;12.68;;
39772;SDS011;25451;51.960;6.250;2022-12-04T05:52:59;35.13;;;12.73;;
39772;SDS011;25451;51.960;6.250;2022-12-04T05:55:25;37.93;;;12.97;;
39772;SDS011;25451;51.960;6.250;2022-12-04T05:57:50;36.67;;;12.60;;
39772;SDS011;25451;51.960;6.250;2022-12-04T06:00:15;34.10;;;11.93;;
39772;SDS011;25451;51.960;6.250;2022-12-04T06:02:42;37.63;;;12.68;;
39772;SDS011;25451;51.960;6.250;2022-12-04T06:05:07;38.83;;;12.97;;
39772;SDS011;25451;51.960;6.250;2022-12-04T06:07:32;34.53;;;11.83;;
39772;SDS011;25451;51.960;6.250;2022-12-04T06:09:58;36.33;;;12.10;;
39772;SDS011;25451;51.960;6.250;2022-12-04T06:12:23;35.73;;;11.57;;
39772;SDS011;25451;51.960;6.250;2022-12-04T06:14:48;36.53;;;11.67;;
39772;SDS011;25451;51.960;6.250;2022-12-04T06:17:13;32.80;;;12.23;;
39772;SDS011;25451;51.960;6.250;2022-12-04T06:19:39;37.60;;;12.83;;
39772;SDS011;25451;51.960;6.250;2022-12-04T06:22:04;30.47;;;11.07;;
39772;SDS011;25451;51.960;6.250;2022-12-04T06:24:29;30.93;;;11.27;;
39772;SDS011;25451;51.960;6.250;2022-12-04T06:26:55;35.70;;;12.05;;
39772;SDS011;25451;51.960;6.250;2022-12-04T06:29:22;38.13;;;12.90;;
39772;SDS011;25451;51.960;6.250;2022-12-04T06:31:47;35.37;;;11.93;;
39772;SDS011;25451;51.960;6.250;2022-12-04T06:34:12;39.93;;;12.90;;
39772;SDS011;25451;51.960;6.250;2022-12-04T06:36:38;34.17;;;11.73;;
39772;SDS011;25451;51.960;6.250;2022-12-04T06:39:03;34.05;;;12.48;;
39772;SDS011;25451;51.960;6.250;2022-12-04T06:41:29;35.37;;;12.33;;
39772;SDS011;25451;51.960;6.250;2022-12-04T06:43:55;34.33;;;12.20;;
39772;SDS011;25451;51.960;6.250;2022-12-04T06:46:25;33.97;;;11.63;;
39772;SDS011;25451;51.960;6.250;2022-12-04T06:48:53;32.10;;;11.50;;
39772;SDS011;25451;51.960;6.250;2022-12-04T06:51:20;31.30;;;10.50;;
39772;SDS011;25451;51.960;6.250;2022-12-04T06:53:47;30.30;;;11.05;;
39772;SDS011;25451;51.960;6.250;2022-12-04T06:56:14;35.80;;;11.60;;
39772;SDS011;25451;51.960;6.250;2022-12-04T06:58:42;31.10;;;10.90;;
39772;SDS011;25451;51.960;6.250;2022-12-04T07:01:29;33.10;;;10.93;;
39772;SDS011;25451;51.960;6.250;2022-12-04T07:03:56;29.92;;;10.32;;
39772;SDS011;25451;51.960;6.250;2022-12-04T07:06:26;29.63;;;10.15;;
39772;SDS011;25451;51.960;6.250;2022-12-04T07:08:54;30.80;;;10.60;;
39772;SDS011;25451;51.960;6.250;2022-12-04T07:11:23;35.90;;;10.53;;
39772;SDS011;25451;51.960;6.250;2022-12-04T07:13:49;33.83;;;12.00;;
39772;SDS011;25451;51.960;6.250;2022-12-04T07:16:16;32.95;;;11.73;;
39772;SDS011;25451;51.960;6.250;2022-12-04T07:18:43;31.15;;;11.30;;
39772;SDS011;25451;51.960;6.250;2022-12-04T07:21:10;29.27;;;10.70;;
39772;SDS011;25451;51.960;6.250;2022-12-04T07:23:38;29.30;;;10.63;;
39772;SDS011;25451;51.960;6.250;2022-12-04T07:26:08;30.05;;;10.73;;
39772;SDS011;25451;51.960;6.250;2022-12-04T07:28:35;33.60;;;11.25;;
39772;SDS011;25451;51.960;6.250;2022-12-04T07:31:02;33.73;;;10.70;;
39772;SDS011;25451;51.960;6.250;2022-12-04T07:33:32;29.42;;;10.27;;
39772;SDS011;25451;51.960;6.250;2022-12-04T07:35:58;34.03;;;11.20;;
39772;SDS011;25451;51.960;6.250;2022-12-04T07:38:25;36.58;;;11.13;;
39772;SDS011;25451;51.960;6.250;2022-12-04T07:40:50;32.73;;;9.97;;
39772;SDS011;25451;51.960;6.250;2022-12-04T07:43:16;35.75;;;11.73;;
39772;SDS011;25451;51.960;6.250;2022-12-04T07:45:41;28.93;;;10.97;;
39772;SDS011;25451;51.960;6.250;2022-12-04T07:48:06;31.47;;;10.37;;
39772;SDS011;25451;51.960;6.250;2022-12-04T07:50:31;32.43;;;11.43;;
39772;SDS011;25451;51.960;6.250;2022-12-04T07:52:57;35.30;;;11.67;;
39772;SDS011;25451;51.960;6.250;2022-12-04T07:55:22;35.40;;;12.83;;
39772;SDS011;25451;51.960;6.250;2022-12-04T07:57:47;34.63;;;11.67;;
39772;SDS011;25451;51.960;6.250;2022-12-04T08:00:13;32.33;;;10.87;;
39772;SDS011;25451;51.960;6.250;2022-12-04T08:02:38;32.47;;;10.60;;
39772;SDS011;25451;51.960;6.250;2022-12-04T08:05:04;30.80;;;10.65;;
39772;SDS011;25451;51.960;6.250;2022-12-04T08:07:30;34.07;;;11.70;;
39772;SDS011;25451;51.960;6.250;2022-12-04T08:09:56;33.33;;;11.30;;
39772;SDS011;25451;51.960;6.250;2022-12-04T08:12:21;30.13;;;10.97;;
39772;SDS011;25451;51.960;6.250;2022-12-04T08:14:47;31.40;;;11.10;;
39772;SDS011;25451;51.960;6.250;2022-12-04T08:17:13;33.65;;;12.25;;
39772;SDS011;25451;51.960;6.250;2022-12-04T08:19:38;35.13;;;12.03;;
39772;SDS011;25451;51.960;6.250;2022-12-04T08:22:03;32.13;;;11.33;;
39772;SDS011;25451;51.960;6.250;2022-12-04T08:24:29;39.33;;;11.60;;
39772;SDS011;25451;51.960;6.250;2022-12-04T08:26:54;35.13;;;12.20;;
39772;SDS011;25451;51.960;6.250;2022-12-04T08:29:19;34.47;;;11.53;;
39772;SDS011;25451;51.960;6.250;2022-12-04T08:31:45;34.83;;;11.33;;
39772;SDS011;25451;51.960;6.250;2022-12-04T08:34:10;33.17;;;11.27;;
39772;SDS011;25451;51.960;6.250;2022-12-04T08:36:35;30.80;;;10.27;;
39772;SDS011;25451;51.960;6.250;2022-12-04T08:39:01;31.90;;;10.77;;
39772;SDS011;25451;51.960;6.250;2022-12-04T08:41:26;27.25;;;10.00;;
39772;SDS011;25451;51.960;6.250;2022-12-04T08:43:52;31.23;;;10.27;;
39772;SDS011;25451;51.960;6.250;2022-12-04T08:46:19;33.93;;;11.17;;
39772;SDS011;25451;51.960;6.250;2022-12-04T08:48:45;31.65;;;11.25;;
39772;SDS011;25451;51.960;6.250;2022-12-04T08:51:14;28.92;;;10.95;;
39772;SDS011;25451;51.960;6.250;2022-12-04T08:53:44;33.10;;;11.23;;
39772;SDS011;25451;51.960;6.250;2022-12-04T08:56:09;26.83;;;9.65;;
39772;SDS011;25451;51.960;6.250;2022-12-04T08:58:35;31.20;;;10.20;;
39772;SDS011;25451;51.960;6.250;2022-12-04T09:01:07;26.83;;;9.33;;
39772;SDS011;25451;51.960;6.250;2022-12-04T09:03:34;28.27;;;9.60;;
39772;SDS011;25451;51.960;6.250;2022-12-04T09:06:00;25.60;;;9.23;;
39772;SDS011;25451;51.960;6.250;2022-12-04T09:08:27;25.27;;;9.95;;
39772;SDS011;25451;51.960;6.250;2022-12-04T09:10:52;28.17;;;8.57;;
39772;SDS011;25451;51.960;6.250;2022-12-04T09:13:17;22.43;;;9.93;;
39772;SDS011;25451;51.960;6.250;2022-12-04T09:15:42;20.90;;;7.80;;
39772;SDS011;25451;51.960;6.250;2022-12-04T09:18:08;22.10;;;8.60;;
39772;SDS011;25451;51.960;6.250;2022-12-04T09:20:34;21.40;;;7.90;;
39772;SDS011;25451;51.960;6.250;2022-12-04T09:22:59;22.30;;;7.83;;
39772;SDS011;25451;51.960;6.250;2022-12-04T09:25:25;20.90;;;7.55;;
39772;SDS011;25451;51.960;6.250;2022-12-04T09:27:50;19.97;;;7.37;;
39772;SDS011;25451;51.960;6.250;2022-12-04T09:30:15;20.80;;;7.40;;
39772;SDS011;25451;51.960;6.250;2022-12-04T09:32:41;17.63;;;6.20;;
39772;SDS011;25451;51.960;6.250;2022-12-04T09:35:06;17.70;;;6.60;;
39772;SDS011;25451;51.960;6.250;2022-12-04T09:37:32;19.13;;;6.97;;
39772;SDS011;25451;51.960;6.250;2022-12-04T09:39:57;21.83;;;6.95;;
39772;SDS011;25451;51.960;6.250;2022-12-04T09:45:14;17.45;;;7.28;;
39772;SDS011;25451;51.960;6.250;2022-12-04T09:47:46;17.02;;;6.57;;
39772;SDS011;25451;51.960;6.250;2022-12-04T09:50:24;15.95;;;6.93;;
39772;SDS011;25451;51.960;6.250;2022-12-04T09:53:05;18.27;;;5.90;;
39772;SDS011;25451;51.960;6.250;2022-12-04T09:55:44;12.10;;;5.82;;
39772;SDS011;25451;51.960;6.250;2022-12-04T09:58:18;15.70;;;6.03;;
39772;SDS011;25451;51.960;6.250;2022-12-04T10:00:49;18.45;;;6.40;;
39772;SDS011;25451;51.960;6.250;2022-12-04T10:03:20;19.58;;;6.53;;
39772;SDS011;25451;51.960;6.250;2022-12-04T10:21:48;18.07;;;6.63;;
39772;SDS011;25451;51.960;6.250;2022-12-04T10:27:34;14.88;;;5.60;;
39772;SDS011;25451;51.960;6.250;2022-12-04T10:30:27;12.57;;;5.25;;
39772;SDS011;25451;51.960;6.250;2022-12-04T10:32:57;16.23;;;6.18;;
39772;SDS011;25451;51.960;6.250;2022-12-04T10:35:29;15.67;;;6.07;;
39772;SDS011;25451;51.960;6.250;2022-12-04T10:37:56;17.58;;;6.20;;
39772;SDS011;25451;51.960;6.250;2022-12-04T10:40:30;18.75;;;6.10;;
39772;SDS011;25451;51.960;6.250;2022-12-04T10:43:05;18.23;;;6.32;;
39772;SDS011;25451;51.960;6.250;2022-12-04T10:45:39;16.17;;;6.18;;
39772;SDS011;25451;51.960;6.250;2022-12-04T10:48:04;15.33;;;6.10;;
39772;SDS011;25451;51.960;6.250;2022-12-04T10:50:32;16.80;;;5.90;;
39772;SDS011;25451;51.960;6.250;2022-12-04T10:52:58;15.70;;;6.43;;
39772;SDS011;25451;51.960;6.250;2022-12-04T10:55:33;17.03;;;6.37;;
39772;SDS011;25451;51.960;6.250;2022-12-04T10:58:00;14.98;;;6.25;;
39772;SDS011;25451;51.960;6.250;2022-12-04T11:00:33;14.02;;;6.53;;
39772;SDS011;25451;51.960;6.250;2022-12-04T11:03:00;16.38;;;6.35;;
39772;SDS011;25451;51.960;6.250;2022-12-04T11:07:54;14.83;;;6.00;;
39772;SDS011;25451;51.960;6.250;2022-12-04T11:10:21;14.90;;;6.40;;
39772;SDS011;25451;51.960;6.250;2022-12-04T11:12:55;18.95;;;6.72;;
39772;SDS011;25451;51.960;6.250;2022-12-04T11:15:21;14.45;;;5.95;;
39772;SDS011;25451;51.960;6.250;2022-12-04T11:17:47;15.85;;;6.60;;
39772;SDS011;25451;51.960;6.250;2022-12-04T11:20:18;14.33;;;5.93;;
39772;SDS011;25451;51.960;6.250;2022-12-04T11:25:20;18.73;;;6.47;;
39772;SDS011;25451;51.960;6.250;2022-12-04T11:27:50;21.90;;;6.53;;
39772;SDS011;25451;51.960;6.250;2022-12-04T11:30:19;14.85;;;6.15;;
39772;SDS011;25451;51.960;6.250;2022-12-04T11:33:06;15.57;;;6.25;;
39772;SDS011;25451;51.960;6.250;2022-12-04T11:35:42;14.50;;;5.72;;
39772;SDS011;25451;51.960;6.250;2022-12-04T11:38:15;15.75;;;5.97;;
39772;SDS011;25451;51.960;6.250;2022-12-04T11:40:45;11.63;;;5.67;;
39772;SDS011;25451;51.960;6.250;2022-12-04T11:43:16;15.38;;;5.95;;
39772;SDS011;25451;51.960;6.250;2022-12-04T11:48:45;14.98;;;5.65;;
39772;SDS011;25451;51.960;6.250;2022-12-04T11:56:30;15.43;;;5.33;;
39772;SDS011;25451;51.960;6.250;2022-12-04T12:01:49;14.70;;;5.80;;
39772;SDS011;25451;51.960;6.250;2022-12-04T12:04:19;15.32;;;6.45;;
39772;SDS011;25451;51.960;6.250;2022-12-04T12:07:00;15.82;;;6.40;;
39772;SDS011;25451;51.960;6.250;2022-12-04T12:12:09;13.47;;;5.73;;
39772;SDS011;25451;51.960;6.250;2022-12-04T12:15:05;15.40;;;5.87;;
39772;SDS011;25451;51.960;6.250;2022-12-04T12:17:44;15.60;;;5.80;;
39772;SDS011;25451;51.960;6.250;2022-12-04T12:27:57;15.03;;;6.03;;
39772;SDS011;25451;51.960;6.250;2022-12-04T12:30:44;15.80;;;6.30;;
39772;SDS011;25451;51.960;6.250;2022-12-04T12:33:24;11.70;;;5.53;;
39772;SDS011;25451;51.960;6.250;2022-12-04T12:36:07;13.93;;;5.82;;
39772;SDS011;25451;51.960;6.250;2022-12-04T12:41:14;19.10;;;5.50;;
39772;SDS011;25451;51.960;6.250;2022-12-04T12:43:47;15.95;;;6.40;;
39772;SDS011;25451;51.960;6.250;2022-12-04T12:49:08;13.93;;;5.18;;
39772;SDS011;25451;51.960;6.250;2022-12-04T12:51:39;13.32;;;5.40;;
39772;SDS011;25451;51.960;6.250;2022-12-04T12:57:29;14.30;;;6.20;;
39772;SDS011;25451;51.960;6.250;2022-12-04T13:00:19;14.82;;;6.20;;
39772;SDS011;25451;51.960;6.250;2022-12-04T13:05:40;14.00;;;6.07;;
39772;SDS011;25451;51.960;6.250;2022-12-04T13:08:16;15.43;;;6.23;;
39772;SDS011;25451;51.960;6.250;2022-12-04T13:11:06;17.92;;;6.53;;
39772;SDS011;25451;51.960;6.250;2022-12-04T13:13:43;16.60;;;6.63;;
39772;SDS011;25451;51.960;6.250;2022-12-04T13:16:46;15.75;;;5.80;;
39772;SDS011;25451;51.960;6.250;2022-12-04T13:19:25;13.85;;;5.75;;
39772;SDS011;25451;51.960;6.250;2022-12-04T13:27:50;15.00;;;5.60;;
39772;SDS011;25451;51.960;6.250;2022-12-04T13:30:29;13.32;;;6.00;;
39772;SDS011;25451;51.960;6.250;2022-12-04T13:41:43;15.75;;;6.70;;
39772;SDS011;25451;51.960;6.250;2022-12-04T13:44:19;17.43;;;6.50;;
39772;SDS011;25451;51.960;6.250;2022-12-04T13:47:02;18.38;;;6.95;;
39772;SDS011;25451;51.960;6.250;2022-12-04T13:49:31;19.10;;;6.93;;
39772;SDS011;25451;51.960;6.250;2022-12-04T13:52:02;17.35;;;7.00;;
39772;SDS011;25451;51.960;6.250;2022-12-04T13:54:33;21.47;;;6.63;;
39772;SDS011;25451;51.960;6.250;2022-12-04T14:00:03;18.10;;;7.60;;
39772;SDS011;25451;51.960;6.250;2022-12-04T14:02:31;22.55;;;7.32;;
39772;SDS011;25451;51.960;6.250;2022-12-04T14:05:11;20.75;;;7.65;;
39772;SDS011;25451;51.960;6.250;2022-12-04T14:07:38;20.57;;;7.93;;
39772;SDS011;25451;51.960;6.250;2022-12-04T14:12:38;20.52;;;7.82;;
39772;SDS011;25451;51.960;6.250;2022-12-04T14:15:07;21.23;;;7.28;;
39772;SDS011;25451;51.960;6.250;2022-12-04T14:17:46;22.45;;;7.82;;
39772;SDS011;25451;51.960;6.250;2022-12-04T14:20:31;22.67;;;8.67;;
39772;SDS011;25451;51.960;6.250;2022-12-04T14:25:50;22.40;;;8.43;;
39772;SDS011;25451;51.960;6.250;2022-12-04T14:28:24;20.63;;;7.95;;
39772;SDS011;25451;51.960;6.250;2022-12-04T14:36:22;21.52;;;8.77;;
39772;SDS011;25451;51.960;6.250;2022-12-04T14:38:54;20.40;;;8.35;;
39772;SDS011;25451;51.960;6.250;2022-12-04T14:41:25;21.00;;;8.10;;
39772;SDS011;25451;51.960;6.250;2022-12-04T14:43:51;23.70;;;8.93;;
39772;SDS011;25451;51.960;6.250;2022-12-04T14:46:22;20.63;;;8.40;;
39772;SDS011;25451;51.960;6.250;2022-12-04T15:00:13;20.40;;;7.70;;
39772;SDS011;25451;51.960;6.250;2022-12-04T15:02:42;22.48;;;8.60;;
39772;SDS011;25451;51.960;6.250;2022-12-04T15:05:10;23.45;;;8.50;;
39772;SDS011;25451;51.960;6.250;2022-12-04T15:07:54;23.13;;;9.13;;
39772;SDS011;25451;51.960;6.250;2022-12-04T15:10:24;22.85;;;9.60;;
39772;SDS011;25451;51.960;6.250;2022-12-04T15:13:09;21.70;;;8.70;;
39772;SDS011;25451;51.960;6.250;2022-12-04T15:15:35;20.88;;;7.97;;
39772;SDS011;25451;51.960;6.250;2022-12-04T15:18:10;22.07;;;8.47;;
39772;SDS011;25451;51.960;6.250;2022-12-04T15:23:19;26.50;;;9.48;;
39772;SDS011;25451;51.960;6.250;2022-12-04T15:25:52;25.67;;;9.63;;
39772;SDS011;25451;51.960;6.250;2022-12-04T15:28:27;22.90;;;9.10;;
39772;SDS011;25451;51.960;6.250;2022-12-04T15:30:54;29.52;;;10.07;;
39772;SDS011;25451;51.960;6.250;2022-12-04T15:33:23;24.95;;;10.00;;
39772;SDS011;25451;51.960;6.250;2022-12-04T15:35:52;25.20;;;10.32;;
39772;SDS011;25451;51.960;6.250;2022-12-04T15:38:20;21.83;;;9.70;;
39772;SDS011;25451;51.960;6.250;2022-12-04T15:40:50;24.42;;;9.32;;
39772;SDS011;25451;51.960;6.250;2022-12-04T15:43:45;26.57;;;9.90;;
39772;SDS011;25451;51.960;6.250;2022-12-04T15:46:14;28.45;;;9.68;;
39772;SDS011;25451;51.960;6.250;2022-12-04T15:48:46;30.30;;;10.35;;
39772;SDS011;25451;51.960;6.250;2022-12-04T15:51:11;27.33;;;9.83;;
39772;SDS011;25451;51.960;6.250;2022-12-04T15:53:42;25.70;;;9.63;;
39772;SDS011;25451;51.960;6.250;2022-12-04T15:56:15;27.10;;;10.70;;
39772;SDS011;25451;51.960;6.250;2022-12-04T15:58:48;26.30;;;9.43;;
39772;SDS011;25451;51.960;6.250;2022-12-04T16:01:25;24.92;;;10.27;;
39772;SDS011;25451;51.960;6.250;2022-12-04T16:03:51;28.60;;;10.10;;
39772;SDS011;25451;51.960;6.250;2022-12-04T16:06:22;28.00;;;10.18;;
39772;SDS011;25451;51.960;6.250;2022-12-04T16:08:50;27.30;;;9.67;;
39772;SDS011;25451;51.960;6.250;2022-12-04T16:13:44;28.10;;;10.77;;
39772;SDS011;25451;51.960;6.250;2022-12-04T16:16:11;26.77;;;10.35;;
39772;SDS011;25451;51.960;6.250;2022-12-04T16:18:39;31.40;;;10.73;;
39772;SDS011;25451;51.960;6.250;2022-12-04T16:21:08;29.87;;;10.50;;
39772;SDS011;25451;51.960;6.250;2022-12-04T16:23:39;27.85;;;10.13;;
39772;SDS011;25451;51.960;6.250;2022-12-04T16:26:08;29.07;;;10.23;;
39772;SDS011;25451;51.960;6.250;2022-12-04T16:28:36;29.90;;;9.55;;
39772;SDS011;25451;51.960;6.250;2022-12-04T16:31:01;27.90;;;9.73;;
39772;SDS011;25451;51.960;6.250;2022-12-04T16:33:27;25.80;;;10.03;;
39772;SDS011;25451;51.960;6.250;2022-12-04T16:35:52;30.90;;;10.67;;
39772;SDS011;25451;51.960;6.250;2022-12-04T16:38:17;27.23;;;10.10;;
39772;SDS011;25451;51.960;6.250;2022-12-04T16:40:43;30.70;;;10.90;;
39772;SDS011;25451;51.960;6.250;2022-12-04T16:43:10;28.48;;;10.25;;
39772;SDS011;25451;51.960;6.250;2022-12-04T16:45:38;28.63;;;10.38;;
39772;SDS011;25451;51.960;6.250;2022-12-04T16:48:25;28.92;;;10.20;;
39772;SDS011;25451;51.960;6.250;2022-12-04T16:50:51;27.85;;;9.75;;
39772;SDS011;25451;51.960;6.250;2022-12-04T16:53:18;28.03;;;10.00;;
39772;SDS011;25451;51.960;6.250;2022-12-04T16:55:45;27.45;;;10.13;;
39772;SDS011;25451;51.960;6.250;2022-12-04T16:58:12;28.08;;;10.23;;
39772;SDS011;25451;51.960;6.250;2022-12-04T17:00:38;25.47;;;9.33;;
39772;SDS011;25451;51.960;6.250;2022-12-04T17:03:08;28.75;;;10.55;;